Time;durP1;ratioP1;P1;durP2;ratioP2;P2;SDS_P1;SDS_P2;PMS_P1;PMS_P2;Temp;Humidity;BMP_temperature;BMP_pressure;BME280_temperature;BME280_humidity;BME280_pressure;Samples;Min_cycle;Max_cycle;Signal;HPM_P1;HPM_P2
2020/12/10 00:01:05;;;;;;;25.37;17.37;;;;;;;;;;5033566;28;20221;-73
2020/12/10 00:03:30;;;;;;;27.23;17.23;;;;;;;;;;5036062;28;20221;-73
2020/12/10 00:05:55;;;;;;;24.27;16.33;;;;;;;;;;5039275;28;20777;-73
2020/12/10 00:08:20;;;;;;;30.13;17.90;;;;;;;;;;5029212;28;20189;-73
2020/12/10 00:10:46;;;;;;;24.83;15.60;;;;;;;;;;5030052;28;20231;-73
2020/12/10 00:13:11;;;;;;;24.60;16.00;;;;;;;;;;5034156;28;20220;-73
2020/12/10 00:15:36;;;;;;;27.30;16.57;;;;;;;;;;5032288;28;20264;-73
2020/12/10 00:18:01;;;;;;;27.90;17.20;;;;;;;;;;5029266;28;20185;-73
2020/12/10 00:20:27;;;;;;;27.73;16.27;;;;;;;;;;5028427;28;20182;-73
2020/12/10 00:22:52;;;;;;;24.03;16.27;;;;;;;;;;5029613;28;20901;-73
2020/12/10 00:25:17;;;;;;;22.20;14.93;;;;;;;;;;5032621;28;20182;-73
2020/12/10 00:27:42;;;;;;;23.50;15.03;;;;;;;;;;5027103;28;20182;-73
2020/12/10 00:30:08;;;;;;;22.80;15.87;;;;;;;;;;5030171;28;20209;-73
2020/12/10 00:32:34;;;;;;;23.10;15.07;;;;;;;;;;5035277;28;20229;-73
2020/12/10 00:34:59;;;;;;;24.30;15.60;;;;;;;;;;5030926;28;20195;-73
2020/12/10 00:37:25;;;;;;;25.40;16.50;;;;;;;;;;5034857;28;20754;-73
2020/12/10 00:39:50;;;;;;;25.27;16.23;;;;;;;;;;5031481;28;20189;-73
2020/12/10 00:42:15;;;;;;;22.87;14.83;;;;;;;;;;5031520;28;21675;-73
2020/12/10 00:44:40;;;;;;;22.20;14.13;;;;;;;;;;5031086;28;20232;-73
2020/12/10 00:47:05;;;;;;;25.23;15.73;;;;;;;;;;5032599;28;20183;-73
2020/12/10 00:49:31;;;;;;;22.77;14.93;;;;;;;;;;5030269;28;20217;-73
2020/12/10 00:51:56;;;;;;;28.10;15.53;;;;;;;;;;5032244;28;20189;-73
2020/12/10 00:54:21;;;;;;;23.17;15.87;;;;;;;;;;5030203;28;20185;-73
2020/12/10 00:56:47;;;;;;;23.43;14.03;;;;;;;;;;5031166;28;20173;-73
2020/12/10 00:59:13;;;;;;;22.60;13.57;;;;;;;;;;5047384;28;20190;-73
2020/12/10 01:01:40;;;;;;;20.60;15.50;;;;;;;;;;5040704;28;20673;-73
2020/12/10 01:04:05;;;;;;;22.73;14.17;;;;;;;;;;5028937;28;20182;-73
2020/12/10 01:06:31;;;;;;;21.57;15.33;;;;;;;;;;5028908;28;20181;-73
2020/12/10 01:08:56;;;;;;;22.00;13.77;;;;;;;;;;5030783;28;20186;-73
2020/12/10 01:11:28;;;;;;;20.13;13.23;;;;;;;;;;5029107;28;20603;-73
2020/12/10 01:13:56;;;;;;;22.43;13.40;;;;;;;;;;5029281;28;20702;-73
2020/12/10 01:16:24;;;;;;;22.20;14.87;;;;;;;;;;5030579;28;20188;-73
2020/12/10 01:18:50;;;;;;;22.00;14.60;;;;;;;;;;5028963;28;20306;-73
2020/12/10 01:21:15;;;;;;;22.03;14.40;;;;;;;;;;5028724;28;20276;-73
2020/12/10 01:23:40;;;;;;;20.63;14.03;;;;;;;;;;5029230;28;20259;-73
2020/12/10 01:26:09;;;;;;;22.60;14.10;;;;;;;;;;5029133;28;20282;-74
2020/12/10 01:28:34;;;;;;;18.40;12.57;;;;;;;;;;5028747;28;20274;-74
2020/12/10 01:30:59;;;;;;;21.53;14.53;;;;;;;;;;5028924;28;20277;-72
2020/12/10 01:33:24;;;;;;;21.77;14.20;;;;;;;;;;5035444;28;20193;-73
2020/12/10 01:35:49;;;;;;;18.87;13.40;;;;;;;;;;5027265;28;20553;-73
2020/12/10 01:38:14;;;;;;;20.07;13.23;;;;;;;;;;5028201;28;20316;-73
2020/12/10 01:40:40;;;;;;;21.33;13.10;;;;;;;;;;5028446;28;20598;-71
2020/12/10 01:43:05;;;;;;;20.67;14.50;;;;;;;;;;5030252;28;20209;-71
2020/12/10 01:45:30;;;;;;;21.07;13.13;;;;;;;;;;5032406;28;20641;-72
2020/12/10 01:47:55;;;;;;;20.10;13.77;;;;;;;;;;5030376;28;20931;-71
2020/12/10 01:50:20;;;;;;;21.10;13.57;;;;;;;;;;5028414;28;20182;-71
2020/12/10 01:52:49;;;;;;;20.33;13.57;;;;;;;;;;5030561;28;20221;-71
2020/12/10 01:55:14;;;;;;;19.23;13.80;;;;;;;;;;5027425;28;20667;-71
2020/12/10 01:57:39;;;;;;;20.23;14.03;;;;;;;;;;5030944;28;20272;-70
2020/12/10 02:00:04;;;;;;;20.93;12.57;;;;;;;;;;5028576;28;20190;-71
2020/12/10 02:02:30;;;;;;;18.73;13.23;;;;;;;;;;5031988;28;20217;-71
2020/12/10 02:04:55;;;;;;;22.80;13.20;;;;;;;;;;5029700;28;20181;-71
2020/12/10 02:07:20;;;;;;;17.70;11.50;;;;;;;;;;5028767;28;20340;-71
2020/12/10 02:09:45;;;;;;;16.97;12.13;;;;;;;;;;5031690;28;20178;-71
2020/12/10 02:12:10;;;;;;;21.97;12.83;;;;;;;;;;5036484;28;20210;-74
2020/12/10 02:14:37;;;;;;;19.53;13.20;;;;;;;;;;5031870;28;20228;-70
2020/12/10 02:17:04;;;;;;;18.77;12.97;;;;;;;;;;5034829;28;20186;-71
2020/12/10 02:19:29;;;;;;;19.30;12.83;;;;;;;;;;5026742;28;20192;-71
2020/12/10 02:21:54;;;;;;;18.67;12.17;;;;;;;;;;5028243;28;20205;-73
2020/12/10 02:24:19;;;;;;;20.23;12.80;;;;;;;;;;5030381;28;20182;-71
2020/12/10 02:26:45;;;;;;;20.37;11.63;;;;;;;;;;5036740;28;20181;-71
2020/12/10 02:29:11;;;;;;;15.03;10.80;;;;;;;;;;5028981;28;20178;-71
2020/12/10 02:31:36;;;;;;;17.50;12.07;;;;;;;;;;5032480;28;20214;-72
2020/12/10 02:34:02;;;;;;;20.07;12.70;;;;;;;;;;5028646;28;20619;-72
2020/12/10 02:36:28;;;;;;;18.70;12.20;;;;;;;;;;5027869;28;21020;-72
2020/12/10 02:38:53;;;;;;;20.33;11.83;;;;;;;;;;5028774;28;20186;-71
2020/12/10 02:41:20;;;;;;;19.90;12.27;;;;;;;;;;5026017;28;20614;-71
2020/12/10 02:43:45;;;;;;;19.93;12.97;;;;;;;;;;5027972;28;20651;-71
2020/12/10 02:46:10;;;;;;;17.07;11.33;;;;;;;;;;5029979;28;20182;-72
2020/12/10 02:48:35;;;;;;;18.70;11.83;;;;;;;;;;5028594;28;22580;-71
2020/12/10 02:51:01;;;;;;;15.83;10.67;;;;;;;;;;5044176;28;20193;-71
2020/12/10 02:53:29;;;;;;;19.93;11.33;;;;;;;;;;5028436;28;20739;-71
2020/12/10 02:55:54;;;;;;;18.83;12.40;;;;;;;;;;5028397;28;20200;-72
2020/12/10 02:58:20;;;;;;;21.60;12.93;;;;;;;;;;5027800;28;20173;-71
2020/12/10 03:00:46;;;;;;;21.03;13.33;;;;;;;;;;5026810;28;20194;-70
2020/12/10 03:03:11;;;;;;;18.63;12.63;;;;;;;;;;5032854;28;20217;-71
2020/12/10 03:05:36;;;;;;;21.03;11.90;;;;;;;;;;5033456;28;20336;-71
2020/12/10 03:08:01;;;;;;;25.30;14.80;;;;;;;;;;5027794;28;20189;-71
2020/12/10 03:10:26;;;;;;;23.83;14.47;;;;;;;;;;5028638;28;21725;-70
2020/12/10 03:12:51;;;;;;;21.70;13.80;;;;;;;;;;5038389;28;20205;-71
2020/12/10 03:15:17;;;;;;;20.50;13.33;;;;;;;;;;5028365;28;20193;-71
2020/12/10 03:17:42;;;;;;;24.27;14.10;;;;;;;;;;5025986;28;20837;-71
2020/12/10 03:20:07;;;;;;;23.47;13.53;;;;;;;;;;5026476;28;20219;-71
2020/12/10 03:22:32;;;;;;;23.57;14.57;;;;;;;;;;5024646;28;20583;-73
2020/12/10 03:24:58;;;;;;;23.87;14.40;;;;;;;;;;5024708;28;20175;-73
2020/12/10 03:27:23;;;;;;;21.50;13.43;;;;;;;;;;5031323;28;20186;-72
2020/12/10 03:29:48;;;;;;;22.83;14.13;;;;;;;;;;5029078;28;20170;-72
2020/12/10 03:32:13;;;;;;;23.73;14.10;;;;;;;;;;5033322;28;20207;-73
2020/12/10 03:34:38;;;;;;;20.37;12.87;;;;;;;;;;5031487;28;20182;-72
2020/12/10 03:37:03;;;;;;;22.90;13.47;;;;;;;;;;5027528;28;20956;-73
2020/12/10 03:39:29;;;;;;;22.40;13.57;;;;;;;;;;5031937;28;20181;-72
2020/12/10 03:41:56;;;;;;;25.47;15.27;;;;;;;;;;5031522;28;20236;-72
2020/12/10 03:44:22;;;;;;;22.27;13.67;;;;;;;;;;5031119;28;20246;-73
2020/12/10 03:46:47;;;;;;;25.57;14.20;;;;;;;;;;5027714;28;20639;-73
2020/12/10 03:49:12;;;;;;;24.57;15.27;;;;;;;;;;5030980;28;20601;-72
2020/12/10 03:51:38;;;;;;;26.53;14.87;;;;;;;;;;5034642;28;20185;-73
2020/12/10 03:54:03;;;;;;;23.33;14.70;;;;;;;;;;5029975;28;20663;-73
2020/12/10 03:56:30;;;;;;;24.13;15.20;;;;;;;;;;5034568;28;20188;-72
2020/12/10 03:58:56;;;;;;;27.23;14.63;;;;;;;;;;5030694;28;20178;-73
2020/12/10 04:01:21;;;;;;;24.77;14.93;;;;;;;;;;5034801;28;20176;-73
2020/12/10 04:03:46;;;;;;;24.77;15.57;;;;;;;;;;5033041;28;20237;-73
2020/12/10 04:06:11;;;;;;;24.17;14.47;;;;;;;;;;5036571;28;20190;-73
2020/12/10 04:08:37;;;;;;;24.47;14.27;;;;;;;;;;5031653;28;20189;-73
2020/12/10 04:11:02;;;;;;;24.40;15.13;;;;;;;;;;5031418;28;20956;-73
2020/12/10 04:13:28;;;;;;;26.53;15.10;;;;;;;;;;5037557;28;20315;-73
2020/12/10 04:15:53;;;;;;;24.03;15.23;;;;;;;;;;5034329;28;20668;-72
2020/12/10 04:18:18;;;;;;;25.13;15.43;;;;;;;;;;5034674;28;20380;-72
2020/12/10 04:20:43;;;;;;;25.50;15.67;;;;;;;;;;5032250;28;20189;-72
2020/12/10 04:23:08;;;;;;;26.43;15.73;;;;;;;;;;5038602;28;20216;-72
2020/12/10 04:25:34;;;;;;;24.27;15.07;;;;;;;;;;5033029;28;20713;-72
2020/12/10 04:27:59;;;;;;;23.03;14.67;;;;;;;;;;5040895;28;20174;-73
2020/12/10 04:30:24;;;;;;;25.43;14.77;;;;;;;;;;5049425;28;20194;-72
2020/12/10 04:32:50;;;;;;;25.13;14.63;;;;;;;;;;5032132;28;20258;-72
2020/12/10 04:35:15;;;;;;;24.70;15.47;;;;;;;;;;5030827;28;20188;-72
2020/12/10 04:37:41;;;;;;;27.53;15.43;;;;;;;;;;5030217;28;20193;-72
2020/12/10 04:40:07;;;;;;;25.60;14.30;;;;;;;;;;5031133;28;20642;-72
2020/12/10 04:42:32;;;;;;;25.30;14.47;;;;;;;;;;5033599;28;20201;-73
2020/12/10 04:44:57;;;;;;;21.93;14.07;;;;;;;;;;5043813;28;20182;-73
2020/12/10 04:47:23;;;;;;;26.27;15.87;;;;;;;;;;5033057;28;20188;-72
2020/12/10 04:49:49;;;;;;;25.07;15.50;;;;;;;;;;5029863;28;20196;-72
2020/12/10 04:52:14;;;;;;;26.47;15.20;;;;;;;;;;5034552;28;20292;-72
2020/12/10 04:54:40;;;;;;;26.57;15.83;;;;;;;;;;5032020;28;20609;-73
2020/12/10 04:57:06;;;;;;;28.20;16.20;;;;;;;;;;5032371;28;20184;-73
2020/12/10 04:59:31;;;;;;;23.47;15.07;;;;;;;;;;5031235;28;20194;-73
2020/12/10 05:01:56;;;;;;;24.43;15.57;;;;;;;;;;5031335;28;20232;-73
2020/12/10 05:04:22;;;;;;;25.67;14.63;;;;;;;;;;5030855;28;20280;-72
2020/12/10 05:06:51;;;;;;;26.27;15.93;;;;;;;;;;5036050;28;20181;-73
2020/12/10 05:09:17;;;;;;;30.83;16.77;;;;;;;;;;5048979;28;20209;-73
2020/12/10 05:11:42;;;;;;;28.27;16.57;;;;;;;;;;5044810;28;20726;-73
2020/12/10 05:14:08;;;;;;;25.80;16.13;;;;;;;;;;5032308;28;20185;-74
2020/12/10 05:16:33;;;;;;;30.00;16.23;;;;;;;;;;5032536;28;20180;-73
2020/12/10 05:19:19;;;;;;;24.67;15.50;;;;;;;;;;5042286;28;20173;-73
2020/12/10 05:22:03;;;;;;;23.13;15.50;;;;;;;;;;5030531;28;20209;-72
2020/12/10 05:24:29;;;;;;;27.40;16.17;;;;;;;;;;5029906;28;20177;-72
2020/12/10 05:27:13;;;;;;;26.60;15.87;;;;;;;;;;5026476;28;20186;-72
2020/12/10 05:29:39;;;;;;;26.40;16.10;;;;;;;;;;5029360;28;20189;-72
2020/12/10 05:32:04;;;;;;;29.23;17.10;;;;;;;;;;5033500;28;20571;-72
2020/12/10 05:34:29;;;;;;;34.03;17.67;;;;;;;;;;5029128;28;20189;-72
2020/12/10 05:36:54;;;;;;;28.13;16.00;;;;;;;;;;5050608;28;20930;-71
2020/12/10 05:39:19;;;;;;;27.03;16.50;;;;;;;;;;5026743;28;20212;-71
2020/12/10 05:41:52;;;;;;;27.47;16.33;;;;;;;;;;5033610;28;20201;-71
2020/12/10 05:44:21;;;;;;;30.87;16.77;;;;;;;;;;5032060;28;20190;-72
2020/12/10 05:46:49;;;;;;;32.03;15.83;;;;;;;;;;5029487;28;20268;-71
2020/12/10 05:49:14;;;;;;;32.37;17.30;;;;;;;;;;5028134;28;20178;-72
2020/12/10 05:51:46;;;;;;;25.03;15.20;;;;;;;;;;5029738;28;20667;-73
2020/12/10 05:54:13;;;;;;;25.33;15.30;;;;;;;;;;5028162;28;20264;-73
2020/12/10 05:56:43;;;;;;;29.33;15.63;;;;;;;;;;5029180;28;20198;-73
2020/12/10 05:59:08;;;;;;;27.27;16.00;;;;;;;;;;5029999;28;20209;-73
2020/12/10 06:01:34;;;;;;;25.15;15.13;;;;;;;;;;5030773;28;20304;-75
2020/12/10 06:04:00;;;;;;;27.10;16.87;;;;;;;;;;5028145;28;20190;-74
2020/12/10 06:06:29;;;;;;;28.30;14.33;;;;;;;;;;5028849;28;20190;-75
2020/12/10 06:09:02;;;;;;;23.60;14.00;;;;;;;;;;5028000;28;20185;-74
2020/12/10 06:11:28;;;;;;;27.90;16.10;;;;;;;;;;5031942;28;20169;-74
2020/12/10 06:14:06;;;;;;;27.07;16.30;;;;;;;;;;5031942;28;20685;-74
2020/12/10 06:16:32;;;;;;;27.53;15.23;;;;;;;;;;5029846;28;20178;-75
2020/12/10 06:19:02;;;;;;;28.73;16.33;;;;;;;;;;5034082;28;20201;-75
2020/12/10 06:21:43;;;;;;;29.70;16.43;;;;;;;;;;5030645;28;20178;-74
2020/12/10 06:24:31;;;;;;;28.53;15.57;;;;;;;;;;5032766;28;20535;-74
2020/12/10 06:26:57;;;;;;;24.97;15.27;;;;;;;;;;5027251;28;20190;-74
2020/12/10 06:29:27;;;;;;;24.80;15.53;;;;;;;;;;5029086;28;20591;-75
2020/12/10 06:32:02;;;;;;;27.30;15.73;;;;;;;;;;5035299;28;20209;-74
2020/12/10 06:34:34;;;;;;;28.47;16.33;;;;;;;;;;5029217;28;20182;-75
2020/12/10 06:37:12;;;;;;;26.90;16.30;;;;;;;;;;5027709;28;20272;-72
2020/12/10 06:39:37;;;;;;;28.23;15.97;;;;;;;;;;5036102;28;20260;-72
2020/12/10 06:42:03;;;;;;;29.03;15.43;;;;;;;;;;5032038;28;20666;-72
2020/12/10 06:44:32;;;;;;;28.50;16.23;;;;;;;;;;5030158;28;20174;-72
2020/12/10 06:46:57;;;;;;;28.00;16.77;;;;;;;;;;5029459;28;20205;-72
2020/12/10 06:49:29;;;;;;;23.63;14.53;;;;;;;;;;5026838;28;20317;-72
2020/12/10 06:52:10;;;;;;;26.93;16.07;;;;;;;;;;5027675;28;20189;-72
2020/12/10 06:54:35;;;;;;;27.13;15.30;;;;;;;;;;5027495;28;20315;-72
2020/12/10 06:57:05;;;;;;;31.37;15.57;;;;;;;;;;5029679;28;20181;-74
2020/12/10 06:59:37;;;;;;;28.07;15.40;;;;;;;;;;5028710;28;20180;-72
2020/12/10 07:02:09;;;;;;;26.77;15.73;;;;;;;;;;5028773;28;20722;-74
2020/12/10 07:04:42;;;;;;;21.70;14.73;;;;;;;;;;5031477;28;20194;-74
2020/12/10 07:07:11;;;;;;;24.50;15.50;;;;;;;;;;5033430;28;20774;-74
2020/12/10 07:09:46;;;;;;;23.37;13.83;;;;;;;;;;5035763;28;20186;-74
2020/12/10 07:12:21;;;;;;;26.90;15.20;;;;;;;;;;5031275;28;21074;-72
2020/12/10 07:14:46;;;;;;;26.30;15.33;;;;;;;;;;5032604;28;20215;-72
2020/12/10 07:17:12;;;;;;;26.90;14.80;;;;;;;;;;5031327;28;20189;-74
2020/12/10 07:19:37;;;;;;;25.73;14.37;;;;;;;;;;5036639;28;20276;-74
2020/12/10 07:22:02;;;;;;;25.80;15.53;;;;;;;;;;5039420;28;20221;-74
2020/12/10 07:24:27;;;;;;;24.70;14.90;;;;;;;;;;5037777;28;20283;-74
2020/12/10 07:26:53;;;;;;;25.40;14.47;;;;;;;;;;5031402;28;20185;-74
2020/12/10 07:29:18;;;;;;;24.23;14.47;;;;;;;;;;5032156;28;20892;-74
2020/12/10 07:31:43;;;;;;;23.60;13.03;;;;;;;;;;5034288;28;20675;-74
2020/12/10 07:34:11;;;;;;;25.60;14.03;;;;;;;;;;5031821;28;20261;-74
2020/12/10 07:36:44;;;;;;;24.30;13.70;;;;;;;;;;5031321;28;20279;-74
2020/12/10 07:39:10;;;;;;;27.93;14.33;;;;;;;;;;5034749;28;20523;-74
2020/12/10 07:41:38;;;;;;;23.67;13.87;;;;;;;;;;5030068;28;20177;-74
2020/12/10 07:44:03;;;;;;;28.67;14.87;;;;;;;;;;5030575;28;20199;-74
2020/12/10 07:46:34;;;;;;;25.87;14.97;;;;;;;;;;5034044;28;20190;-74
2020/12/10 07:48:59;;;;;;;22.43;13.97;;;;;;;;;;5031441;28;20169;-74
2020/12/10 07:51:24;;;;;;;25.27;14.70;;;;;;;;;;5032252;28;20567;-73
2020/12/10 07:53:49;;;;;;;27.27;14.80;;;;;;;;;;5032259;28;20201;-74
2020/12/10 07:56:18;;;;;;;26.90;15.43;;;;;;;;;;5025630;28;20211;-74
2020/12/10 07:58:49;;;;;;;25.43;13.87;;;;;;;;;;5029815;28;20312;-74
2020/12/10 08:01:14;;;;;;;25.50;14.90;;;;;;;;;;5035906;28;20624;-74
2020/12/10 08:03:46;;;;;;;25.50;14.93;;;;;;;;;;5031560;28;20455;-74
2020/12/10 08:06:12;;;;;;;25.17;15.10;;;;;;;;;;5030782;28;20197;-74
2020/12/10 08:08:42;;;;;;;26.60;15.23;;;;;;;;;;5028836;28;20187;-74
2020/12/10 08:11:08;;;;;;;28.10;15.47;;;;;;;;;;5030487;28;20607;-74
2020/12/10 08:13:33;;;;;;;24.77;14.77;;;;;;;;;;5038625;28;20245;-74
2020/12/10 08:16:05;;;;;;;26.87;15.13;;;;;;;;;;5030150;28;20595;-74
2020/12/10 08:18:30;;;;;;;25.60;13.70;;;;;;;;;;5052001;28;20272;-74
2020/12/10 08:20:55;;;;;;;27.77;15.07;;;;;;;;;;5029672;28;20358;-74
2020/12/10 08:23:21;;;;;;;24.23;13.47;;;;;;;;;;5031164;28;20217;-75
2020/12/10 08:25:48;;;;;;;25.07;15.43;;;;;;;;;;5029984;28;20283;-74
2020/12/10 08:28:13;;;;;;;23.97;14.40;;;;;;;;;;5029617;28;20446;-74
2020/12/10 08:30:52;;;;;;;23.93;14.00;;;;;;;;;;5048583;28;20178;-74
2020/12/10 08:33:17;;;;;;;27.50;14.13;;;;;;;;;;5030583;28;20243;-74
2020/12/10 08:35:43;;;;;;;24.73;15.50;;;;;;;;;;5033162;28;20173;-74
2020/12/10 08:38:09;;;;;;;24.60;14.37;;;;;;;;;;5030853;28;20181;-74
2020/12/10 08:40:34;;;;;;;22.10;14.10;;;;;;;;;;5030978;28;20178;-74
2020/12/10 08:43:09;;;;;;;23.60;14.60;;;;;;;;;;5034974;28;20216;-75
2020/12/10 08:45:34;;;;;;;22.40;13.27;;;;;;;;;;5031305;28;20174;-74
2020/12/10 08:48:00;;;;;;;25.40;15.67;;;;;;;;;;5032494;28;20180;-74
2020/12/10 08:50:27;;;;;;;23.53;14.37;;;;;;;;;;5030911;28;20273;-74
2020/12/10 08:52:58;;;;;;;26.93;14.83;;;;;;;;;;5032715;28;20202;-74
2020/12/10 08:55:23;;;;;;;24.23;14.77;;;;;;;;;;5032097;28;20189;-74
2020/12/10 08:57:49;;;;;;;27.57;14.17;;;;;;;;;;5031503;28;20643;-75
2020/12/10 09:00:14;;;;;;;25.37;15.93;;;;;;;;;;5029488;28;20236;-75
2020/12/10 09:02:39;;;;;;;23.53;14.90;;;;;;;;;;5044774;28;20206;-74
2020/12/10 09:05:04;;;;;;;24.48;14.27;;;;;;;;;;5039465;28;20188;-74
2020/12/10 09:07:29;;;;;;;31.23;15.97;;;;;;;;;;5029663;28;20178;-74
2020/12/10 09:09:55;;;;;;;26.83;15.60;;;;;;;;;;5032639;28;20209;-74
2020/12/10 09:12:20;;;;;;;22.63;15.07;;;;;;;;;;5035169;28;20586;-74
2020/12/10 09:14:45;;;;;;;27.97;16.17;;;;;;;;;;5029792;28;20189;-74
2020/12/10 09:17:10;;;;;;;29.27;16.47;;;;;;;;;;5033082;28;20663;-74
2020/12/10 09:19:35;;;;;;;21.97;14.77;;;;;;;;;;5035430;28;20182;-74
2020/12/10 09:22:00;;;;;;;21.43;14.23;;;;;;;;;;5029295;28;20220;-74
2020/12/10 09:24:26;;;;;;;23.60;14.37;;;;;;;;;;5035791;28;20202;-74
2020/12/10 09:26:51;;;;;;;24.10;14.90;;;;;;;;;;5030900;28;20651;-74
2020/12/10 09:29:16;;;;;;;22.70;14.20;;;;;;;;;;5037315;28;20326;-74
2020/12/10 09:31:41;;;;;;;22.87;14.63;;;;;;;;;;5043350;28;20547;-73
2020/12/10 09:34:07;;;;;;;22.93;14.27;;;;;;;;;;5039319;28;20205;-73
2020/12/10 09:36:32;;;;;;;20.57;13.77;;;;;;;;;;5039414;28;20174;-73
2020/12/10 09:38:57;;;;;;;23.90;13.67;;;;;;;;;;5042278;28;20174;-73
2020/12/10 09:41:23;;;;;;;25.60;14.23;;;;;;;;;;5041545;28;20659;-73
2020/12/10 09:43:49;;;;;;;20.50;13.70;;;;;;;;;;5043084;28;20285;-73
2020/12/10 09:46:14;;;;;;;22.27;13.57;;;;;;;;;;5030940;28;20166;-73
2020/12/10 09:48:39;;;;;;;20.63;12.97;;;;;;;;;;5030488;28;20558;-72
2020/12/10 09:51:05;;;;;;;21.37;14.20;;;;;;;;;;5030713;28;20177;-75
2020/12/10 09:53:39;;;;;;;19.63;13.23;;;;;;;;;;5028361;28;20205;-74
2020/12/10 09:56:37;;;;;;;20.27;13.07;;;;;;;;;;5026829;28;21832;-74
2020/12/10 09:58:59;;;;;;;22.60;14.07;;;;;;;;;;5031332;28;20217;-74
2020/12/10 10:01:24;;;;;;;22.23;14.23;;;;;;;;;;5031315;28;20185;-74
2020/12/10 10:03:49;;;;;;;19.07;12.63;;;;;;;;;;5026830;28;20259;-75
2020/12/10 10:06:14;;;;;;;21.07;13.67;;;;;;;;;;5029292;28;20173;-74
2020/12/10 10:08:39;;;;;;;24.17;15.00;;;;;;;;;;5029010;28;20189;-74
2020/12/10 10:11:05;;;;;;;20.73;14.07;;;;;;;;;;5033488;28;20304;-74
2020/12/10 10:13:31;;;;;;;28.50;15.63;;;;;;;;;;5031412;28;20213;-74
2020/12/10 10:15:56;;;;;;;23.33;15.17;;;;;;;;;;5028153;28;20200;-74
2020/12/10 10:18:22;;;;;;;24.90;15.67;;;;;;;;;;5033997;28;20178;-73
2020/12/10 10:20:48;;;;;;;23.10;14.70;;;;;;;;;;5029573;28;20186;-73
2020/12/10 10:23:13;;;;;;;21.77;14.33;;;;;;;;;;5029403;28;20272;-73
2020/12/10 10:25:38;;;;;;;23.77;15.53;;;;;;;;;;5026356;28;21882;-73
2020/12/10 10:28:03;;;;;;;21.23;14.07;;;;;;;;;;5032645;28;20177;-73
2020/12/10 10:30:29;;;;;;;25.07;15.43;;;;;;;;;;5030392;28;20187;-73
2020/12/10 10:32:55;;;;;;;21.70;14.73;;;;;;;;;;5032908;28;20197;-73
2020/12/10 10:35:21;;;;;;;22.57;13.90;;;;;;;;;;5028157;28;20193;-73
2020/12/10 10:37:47;;;;;;;24.30;15.77;;;;;;;;;;5029564;28;20323;-73
2020/12/10 10:40:12;;;;;;;22.87;14.27;;;;;;;;;;5033534;28;20229;-73
2020/12/10 10:42:37;;;;;;;21.93;14.50;;;;;;;;;;5037964;28;20231;-73
2020/12/10 10:45:02;;;;;;;24.63;15.83;;;;;;;;;;5030335;28;20177;-73
2020/12/10 10:47:29;;;;;;;23.33;14.90;;;;;;;;;;5032421;28;20240;-73
2020/12/10 10:49:54;;;;;;;24.77;14.10;;;;;;;;;;5033492;28;20236;-72
2020/12/10 10:52:19;;;;;;;21.57;14.47;;;;;;;;;;5028511;28;20206;-73
2020/12/10 10:54:45;;;;;;;21.27;14.27;;;;;;;;;;5037030;28;20554;-72
2020/12/10 10:57:10;;;;;;;21.90;14.97;;;;;;;;;;5026779;28;20190;-74
2020/12/10 10:59:36;;;;;;;21.77;13.43;;;;;;;;;;5031242;28;20517;-73
2020/12/10 11:02:01;;;;;;;22.60;14.10;;;;;;;;;;5031394;28;20212;-73
2020/12/10 11:04:27;;;;;;;23.00;14.23;;;;;;;;;;5031384;28;21195;-73
2020/12/10 11:06:52;;;;;;;21.38;14.10;;;;;;;;;;5031412;28;20178;-73
2020/12/10 11:09:17;;;;;;;20.77;13.87;;;;;;;;;;5030411;28;20598;-73
2020/12/10 11:11:42;;;;;;;21.60;13.47;;;;;;;;;;5030841;28;20178;-73
2020/12/10 11:14:07;;;;;;;23.47;14.67;;;;;;;;;;5030163;28;20200;-72
2020/12/10 11:16:32;;;;;;;25.50;13.57;;;;;;;;;;5029751;28;20598;-72
2020/12/10 11:18:58;;;;;;;19.07;13.20;;;;;;;;;;5031430;28;20595;-75
2020/12/10 11:21:26;;;;;;;22.47;14.10;;;;;;;;;;5028989;28;20196;-73
2020/12/10 11:23:52;;;;;;;22.27;14.60;;;;;;;;;;5027926;28;20217;-75
2020/12/10 11:26:18;;;;;;;23.33;13.97;;;;;;;;;;5027011;28;20175;-75
2020/12/10 11:28:43;;;;;;;26.43;14.77;;;;;;;;;;5050141;28;20627;-74
2020/12/10 11:31:08;;;;;;;21.90;14.20;;;;;;;;;;5027372;28;20526;-73
2020/12/10 11:33:36;;;;;;;20.43;14.80;;;;;;;;;;5035060;28;20198;-73
2020/12/10 11:36:01;;;;;;;21.47;14.00;;;;;;;;;;5040903;28;20183;-73
2020/12/10 11:38:26;;;;;;;20.97;14.07;;;;;;;;;;5028929;28;20169;-73
2020/12/10 11:40:51;;;;;;;19.60;13.43;;;;;;;;;;5027992;28;20217;-74
2020/12/10 11:43:17;;;;;;;23.80;14.07;;;;;;;;;;5027388;28;20302;-74
2020/12/10 11:45:42;;;;;;;21.97;14.13;;;;;;;;;;5026989;28;20184;-75
2020/12/10 11:48:08;;;;;;;20.80;14.37;;;;;;;;;;5028439;28;20604;-75
2020/12/10 11:50:34;;;;;;;22.07;13.70;;;;;;;;;;5032192;28;20210;-74
2020/12/10 11:52:59;;;;;;;23.20;13.83;;;;;;;;;;5030831;28;20668;-74
2020/12/10 11:55:25;;;;;;;21.07;13.77;;;;;;;;;;5029072;28;20182;-75
2020/12/10 11:57:50;;;;;;;19.23;12.97;;;;;;;;;;5030709;28;20181;-75
2020/12/10 12:00:16;;;;;;;20.90;13.70;;;;;;;;;;5032304;28;20185;-75
2020/12/10 12:02:41;;;;;;;23.30;13.37;;;;;;;;;;5033436;28;20304;-74
2020/12/10 12:05:07;;;;;;;20.70;13.50;;;;;;;;;;5030977;28;20234;-74
2020/12/10 12:07:32;;;;;;;22.40;14.27;;;;;;;;;;5035714;28;20178;-74
2020/12/10 12:09:57;;;;;;;19.57;13.33;;;;;;;;;;5030124;28;20194;-73
2020/12/10 12:12:23;;;;;;;21.20;14.27;;;;;;;;;;5038429;28;20239;-73
2020/12/10 12:14:48;;;;;;;21.33;14.50;;;;;;;;;;5031729;28;20174;-73
2020/12/10 12:17:13;;;;;;;20.80;14.23;;;;;;;;;;5027195;28;20195;-73
2020/12/10 12:19:38;;;;;;;22.93;14.57;;;;;;;;;;5030831;28;20569;-73
2020/12/10 12:22:04;;;;;;;20.90;13.30;;;;;;;;;;5032744;28;20232;-73
2020/12/10 12:24:29;;;;;;;18.10;12.57;;;;;;;;;;5030321;28;20170;-73
2020/12/10 12:26:54;;;;;;;20.03;13.87;;;;;;;;;;5030481;28;20221;-73
2020/12/10 12:29:19;;;;;;;21.67;13.57;;;;;;;;;;5027939;28;20182;-73
2020/12/10 12:31:44;;;;;;;20.80;13.83;;;;;;;;;;5031950;28;20236;-74
2020/12/10 12:34:10;;;;;;;21.93;13.60;;;;;;;;;;5031527;28;20178;-74
2020/12/10 12:36:35;;;;;;;20.40;13.20;;;;;;;;;;5030653;28;20209;-74
2020/12/10 12:39:00;;;;;;;19.80;13.47;;;;;;;;;;5029996;28;20542;-74
2020/12/10 12:41:29;;;;;;;22.43;15.13;;;;;;;;;;5028408;28;20174;-74
2020/12/10 12:43:55;;;;;;;21.43;14.23;;;;;;;;;;5030809;28;20253;-74
2020/12/10 12:46:22;;;;;;;23.57;13.27;;;;;;;;;;5034157;28;20263;-74
2020/12/10 12:48:48;;;;;;;18.93;12.97;;;;;;;;;;5030801;28;20174;-74
2020/12/10 12:51:14;;;;;;;19.70;14.40;;;;;;;;;;5035180;28;20649;-74
2020/12/10 12:53:39;;;;;;;24.77;14.17;;;;;;;;;;5027781;28;20210;-74
2020/12/10 12:56:07;;;;;;;20.17;13.57;;;;;;;;;;5028860;28;20190;-74
2020/12/10 12:58:33;;;;;;;19.43;12.97;;;;;;;;;;5030311;28;20710;-74
2020/12/10 13:00:58;;;;;;;22.40;13.13;;;;;;;;;;5028357;28;20684;-74
2020/12/10 13:03:23;;;;;;;20.93;14.43;;;;;;;;;;5033410;28;20208;-74
2020/12/10 13:05:48;;;;;;;21.07;12.97;;;;;;;;;;5037073;28;20181;-74
2020/12/10 13:08:13;;;;;;;20.03;13.30;;;;;;;;;;5045499;28;20684;-74
2020/12/10 13:10:42;;;;;;;19.20;13.43;;;;;;;;;;5028518;28;20181;-74
2020/12/10 13:13:07;;;;;;;18.90;13.10;;;;;;;;;;5029470;28;20213;-74
2020/12/10 13:15:32;;;;;;;18.43;12.67;;;;;;;;;;5030831;28;20705;-74
2020/12/10 13:17:57;;;;;;;21.98;13.70;;;;;;;;;;5030102;28;20677;-74
2020/12/10 13:20:22;;;;;;;23.43;14.57;;;;;;;;;;5030458;28;20189;-74
2020/12/10 13:22:48;;;;;;;20.50;12.87;;;;;;;;;;5028872;28;20194;-74
2020/12/10 13:25:13;;;;;;;21.77;14.43;;;;;;;;;;5026619;28;20330;-75
2020/12/10 13:27:39;;;;;;;22.33;12.90;;;;;;;;;;5033267;28;20612;-74
2020/12/10 13:30:04;;;;;;;19.43;13.00;;;;;;;;;;5027749;28;20181;-74
2020/12/10 13:32:29;;;;;;;28.77;14.43;;;;;;;;;;5029464;28;20209;-74
2020/12/10 13:34:55;;;;;;;19.77;12.47;;;;;;;;;;5031293;28;20178;-74
2020/12/10 13:37:20;;;;;;;17.13;12.17;;;;;;;;;;5030172;28;20709;-74
2020/12/10 13:39:45;;;;;;;21.27;13.80;;;;;;;;;;5030592;28;20174;-74
2020/12/10 13:42:10;;;;;;;21.13;14.40;;;;;;;;;;5031581;28;20210;-74
2020/12/10 13:44:36;;;;;;;19.17;14.13;;;;;;;;;;5030337;28;20312;-74
2020/12/10 13:47:01;;;;;;;20.53;13.30;;;;;;;;;;5030367;28;20182;-74
2020/12/10 13:49:26;;;;;;;20.23;13.67;;;;;;;;;;5029010;28;20189;-74
2020/12/10 13:51:52;;;;;;;17.87;12.43;;;;;;;;;;5033495;28;20585;-74
2020/12/10 13:54:17;;;;;;;18.10;12.63;;;;;;;;;;5035112;28;20651;-74
2020/12/10 13:56:42;;;;;;;20.30;12.83;;;;;;;;;;5029811;28;20208;-74
2020/12/10 13:59:08;;;;;;;17.93;13.13;;;;;;;;;;5029776;28;22144;-74
2020/12/10 14:01:33;;;;;;;18.47;12.87;;;;;;;;;;5031413;28;20169;-74
2020/12/10 14:03:59;;;;;;;20.80;13.67;;;;;;;;;;5028188;28;20567;-74
2020/12/10 14:06:25;;;;;;;19.57;12.60;;;;;;;;;;5028714;28;20263;-74
2020/12/10 14:08:50;;;;;;;21.07;13.83;;;;;;;;;;5029922;28;20185;-74
2020/12/10 14:11:22;;;;;;;19.73;13.67;;;;;;;;;;5030046;28;20378;-74